sensor_id;sensor_type;location;lat;lon;timestamp;P1;durP1;ratioP1;P2;durP2;ratioP2
80295;SDS011;74188;42.148;24.762;2023-11-18T00:00:19;3.55;;;1.80;;
80295;SDS011;74188;42.148;24.762;2023-11-18T00:02:45;4.88;;;1.88;;
80295;SDS011;74188;42.148;24.762;2023-11-18T00:05:11;4.70;;;1.63;;
80295;SDS011;74188;42.148;24.762;2023-11-18T00:07:37;4.50;;;1.83;;
80295;SDS011;74188;42.148;24.762;2023-11-18T00:10:03;6.47;;;1.85;;
80295;SDS011;74188;42.148;24.762;2023-11-18T00:12:31;4.80;;;1.87;;
80295;SDS011;74188;42.148;24.762;2023-11-18T00:14:59;3.88;;;1.63;;
80295;SDS011;74188;42.148;24.762;2023-11-18T00:17:25;4.63;;;2.10;;
80295;SDS011;74188;42.148;24.762;2023-11-18T00:19:50;3.90;;;1.90;;
80295;SDS011;74188;42.148;24.762;2023-11-18T00:22:16;5.50;;;1.92;;
80295;SDS011;74188;42.148;24.762;2023-11-18T00:24:41;4.05;;;1.60;;
80295;SDS011;74188;42.148;24.762;2023-11-18T00:27:08;4.35;;;1.80;;
80295;SDS011;74188;42.148;24.762;2023-11-18T00:29:35;4.32;;;1.70;;
80295;SDS011;74188;42.148;24.762;2023-11-18T00:32:02;4.80;;;1.80;;
80295;SDS011;74188;42.148;24.762;2023-11-18T00:34:29;3.58;;;1.60;;
80295;SDS011;74188;42.148;24.762;2023-11-18T00:36:55;4.15;;;1.70;;
80295;SDS011;74188;42.148;24.762;2023-11-18T00:39:24;3.42;;;1.40;;
80295;SDS011;74188;42.148;24.762;2023-11-18T00:41:50;5.32;;;1.45;;
80295;SDS011;74188;42.148;24.762;2023-11-18T00:44:15;4.75;;;1.70;;
80295;SDS011;74188;42.148;24.762;2023-11-18T00:46:41;4.13;;;1.70;;
80295;SDS011;74188;42.148;24.762;2023-11-18T00:49:07;3.25;;;1.50;;
80295;SDS011;74188;42.148;24.762;2023-11-18T00:51:32;3.90;;;1.60;;
80295;SDS011;74188;42.148;24.762;2023-11-18T00:53:58;3.78;;;1.50;;
80295;SDS011;74188;42.148;24.762;2023-11-18T00:58:53;3.92;;;1.60;;
80295;SDS011;74188;42.148;24.762;2023-11-18T01:01:19;4.10;;;1.70;;
80295;SDS011;74188;42.148;24.762;2023-11-18T01:03:46;4.20;;;1.85;;
80295;SDS011;74188;42.148;24.762;2023-11-18T01:06:12;4.10;;;1.88;;
80295;SDS011;74188;42.148;24.762;2023-11-18T01:08:40;5.93;;;2.10;;
80295;SDS011;74188;42.148;24.762;2023-11-18T01:11:09;4.72;;;2.00;;
80295;SDS011;74188;42.148;24.762;2023-11-18T01:13:35;6.07;;;2.38;;
80295;SDS011;74188;42.148;24.762;2023-11-18T01:16:01;5.88;;;2.80;;
80295;SDS011;74188;42.148;24.762;2023-11-18T01:18:27;4.20;;;2.10;;
80295;SDS011;74188;42.148;24.762;2023-11-18T01:20:53;4.82;;;2.40;;
80295;SDS011;74188;42.148;24.762;2023-11-18T01:23:19;4.38;;;2.30;;
80295;SDS011;74188;42.148;24.762;2023-11-18T01:25:44;4.90;;;2.50;;
80295;SDS011;74188;42.148;24.762;2023-11-18T01:28:10;5.00;;;2.50;;
80295;SDS011;74188;42.148;24.762;2023-11-18T01:30:36;5.97;;;2.50;;
80295;SDS011;74188;42.148;24.762;2023-11-18T01:33:01;5.25;;;2.50;;
80295;SDS011;74188;42.148;24.762;2023-11-18T01:35:28;4.47;;;2.15;;
80295;SDS011;74188;42.148;24.762;2023-11-18T01:37:54;4.30;;;2.00;;
80295;SDS011;74188;42.148;24.762;2023-11-18T01:40:20;4.55;;;1.90;;
80295;SDS011;74188;42.148;24.762;2023-11-18T01:42:46;4.28;;;1.80;;
80295;SDS011;74188;42.148;24.762;2023-11-18T01:45:12;3.88;;;1.88;;
80295;SDS011;74188;42.148;24.762;2023-11-18T01:47:39;3.55;;;1.70;;
80295;SDS011;74188;42.148;24.762;2023-11-18T01:50:06;4.13;;;2.00;;
80295;SDS011;74188;42.148;24.762;2023-11-18T01:52:34;3.28;;;1.50;;
80295;SDS011;74188;42.148;24.762;2023-11-18T01:55:01;3.72;;;1.50;;
80295;SDS011;74188;42.148;24.762;2023-11-18T01:57:34;2.67;;;1.33;;
80295;SDS011;74188;42.148;24.762;2023-11-18T02:00:00;3.00;;;1.30;;
80295;SDS011;74188;42.148;24.762;2023-11-18T02:02:31;3.15;;;1.30;;
80295;SDS011;74188;42.148;24.762;2023-11-18T02:04:57;3.05;;;1.40;;
80295;SDS011;74188;42.148;24.762;2023-11-18T02:07:26;2.70;;;1.30;;
80295;SDS011;74188;42.148;24.762;2023-11-18T02:09:53;2.42;;;1.20;;
80295;SDS011;74188;42.148;24.762;2023-11-18T02:12:26;2.42;;;1.20;;
80295;SDS011;74188;42.148;24.762;2023-11-18T02:14:59;2.40;;;1.10;;
80295;SDS011;74188;42.148;24.762;2023-11-18T02:17:28;2.17;;;1.10;;
80295;SDS011;74188;42.148;24.762;2023-11-18T02:19:58;2.13;;;1.08;;
80295;SDS011;74188;42.148;24.762;2023-11-18T02:22:24;2.60;;;1.20;;
80295;SDS011;74188;42.148;24.762;2023-11-18T02:24:51;2.50;;;1.10;;
80295;SDS011;74188;42.148;24.762;2023-11-18T02:27:18;2.75;;;1.25;;
80295;SDS011;74188;42.148;24.762;2023-11-18T02:29:47;2.88;;;1.23;;
80295;SDS011;74188;42.148;24.762;2023-11-18T02:32:25;4.72;;;1.83;;
80295;SDS011;74188;42.148;24.762;2023-11-18T02:37:43;2.85;;;1.10;;
80295;SDS011;74188;42.148;24.762;2023-11-18T02:40:12;1.90;;;1.00;;
80295;SDS011;74188;42.148;24.762;2023-11-18T02:42:44;2.90;;;1.10;;
80295;SDS011;74188;42.148;24.762;2023-11-18T02:47:42;2.33;;;1.00;;
80295;SDS011;74188;42.148;24.762;2023-11-18T02:50:09;4.22;;;1.25;;
80295;SDS011;74188;42.148;24.762;2023-11-18T02:52:38;3.30;;;1.20;;
80295;SDS011;74188;42.148;24.762;2023-11-18T02:55:05;4.10;;;1.20;;
80295;SDS011;74188;42.148;24.762;2023-11-18T02:57:33;3.28;;;1.35;;
80295;SDS011;74188;42.148;24.762;2023-11-18T02:59:59;2.42;;;1.02;;
80295;SDS011;74188;42.148;24.762;2023-11-18T03:02:29;2.55;;;1.02;;
80295;SDS011;74188;42.148;24.762;2023-11-18T03:04:59;2.03;;;0.90;;
80295;SDS011;74188;42.148;24.762;2023-11-18T03:07:25;3.60;;;0.90;;
80295;SDS011;74188;42.148;24.762;2023-11-18T03:09:52;3.30;;;1.10;;
80295;SDS011;74188;42.148;24.762;2023-11-18T03:12:22;3.78;;;1.10;;
80295;SDS011;74188;42.148;24.762;2023-11-18T03:14:48;1.83;;;1.00;;
80295;SDS011;74188;42.148;24.762;2023-11-18T03:17:13;2.33;;;1.02;;
80295;SDS011;74188;42.148;24.762;2023-11-18T03:19:39;2.58;;;1.00;;
80295;SDS011;74188;42.148;24.762;2023-11-18T03:22:06;2.40;;;1.10;;
80295;SDS011;74188;42.148;24.762;2023-11-18T03:24:32;2.20;;;1.00;;
80295;SDS011;74188;42.148;24.762;2023-11-18T03:26:58;1.52;;;0.90;;
80295;SDS011;74188;42.148;24.762;2023-11-18T03:29:24;1.70;;;1.00;;
80295;SDS011;74188;42.148;24.762;2023-11-18T03:31:49;1.88;;;0.90;;
80295;SDS011;74188;42.148;24.762;2023-11-18T03:34:16;1.55;;;0.90;;
80295;SDS011;74188;42.148;24.762;2023-11-18T03:36:44;2.08;;;0.90;;
80295;SDS011;74188;42.148;24.762;2023-11-18T03:39:10;1.85;;;0.93;;
80295;SDS011;74188;42.148;24.762;2023-11-18T03:41:36;1.45;;;0.90;;
80295;SDS011;74188;42.148;24.762;2023-11-18T03:44:03;2.50;;;0.90;;
80295;SDS011;74188;42.148;24.762;2023-11-18T03:46:29;1.90;;;1.00;;
80295;SDS011;74188;42.148;24.762;2023-11-18T03:48:58;2.50;;;0.98;;
80295;SDS011;74188;42.148;24.762;2023-11-18T03:51:24;1.70;;;0.90;;
80295;SDS011;74188;42.148;24.762;2023-11-18T03:53:49;2.90;;;1.08;;
80295;SDS011;74188;42.148;24.762;2023-11-18T03:56:19;2.05;;;1.00;;
80295;SDS011;74188;42.148;24.762;2023-11-18T03:58:44;2.00;;;0.90;;
80295;SDS011;74188;42.148;24.762;2023-11-18T04:01:22;1.77;;;1.00;;
80295;SDS011;74188;42.148;24.762;2023-11-18T04:03:51;1.92;;;1.00;;
80295;SDS011;74188;42.148;24.762;2023-11-18T04:06:17;1.73;;;0.90;;
80295;SDS011;74188;42.148;24.762;2023-11-18T04:08:46;2.70;;;0.98;;
80295;SDS011;74188;42.148;24.762;2023-11-18T04:11:12;2.60;;;1.00;;
80295;SDS011;74188;42.148;24.762;2023-11-18T04:13:39;3.35;;;1.20;;
80295;SDS011;74188;42.148;24.762;2023-11-18T04:16:11;3.90;;;1.20;;
80295;SDS011;74188;42.148;24.762;2023-11-18T04:18:38;2.58;;;1.20;;
80295;SDS011;74188;42.148;24.762;2023-11-18T04:21:05;2.97;;;1.30;;
80295;SDS011;74188;42.148;24.762;2023-11-18T04:23:31;2.47;;;1.27;;
80295;SDS011;74188;42.148;24.762;2023-11-18T04:25:58;2.17;;;1.13;;
80295;SDS011;74188;42.148;24.762;2023-11-18T04:28:23;1.85;;;1.00;;
80295;SDS011;74188;42.148;24.762;2023-11-18T04:30:49;3.03;;;1.27;;
80295;SDS011;74188;42.148;24.762;2023-11-18T04:33:15;2.25;;;1.10;;
80295;SDS011;74188;42.148;24.762;2023-11-18T04:35:40;4.60;;;1.10;;
80295;SDS011;74188;42.148;24.762;2023-11-18T04:38:06;2.90;;;1.30;;
80295;SDS011;74188;42.148;24.762;2023-11-18T04:40:32;3.10;;;1.40;;
80295;SDS011;74188;42.148;24.762;2023-11-18T04:42:57;3.72;;;1.50;;
80295;SDS011;74188;42.148;24.762;2023-11-18T04:45:23;2.13;;;1.10;;
80295;SDS011;74188;42.148;24.762;2023-11-18T04:47:48;2.92;;;1.30;;
80295;SDS011;74188;42.148;24.762;2023-11-18T04:50:15;3.90;;;1.27;;
80295;SDS011;74188;42.148;24.762;2023-11-18T04:52:40;4.45;;;1.30;;
80295;SDS011;74188;42.148;24.762;2023-11-18T04:55:06;5.20;;;1.50;;
80295;SDS011;74188;42.148;24.762;2023-11-18T04:57:34;5.38;;;1.75;;
80295;SDS011;74188;42.148;24.762;2023-11-18T05:00:00;4.38;;;1.90;;
80295;SDS011;74188;42.148;24.762;2023-11-18T05:02:35;3.60;;;1.77;;
80295;SDS011;74188;42.148;24.762;2023-11-18T05:05:01;4.40;;;1.95;;
80295;SDS011;74188;42.148;24.762;2023-11-18T05:07:26;5.13;;;2.15;;
80295;SDS011;74188;42.148;24.762;2023-11-18T05:09:53;4.07;;;2.00;;
80295;SDS011;74188;42.148;24.762;2023-11-18T05:12:19;4.40;;;2.10;;
80295;SDS011;74188;42.148;24.762;2023-11-18T05:14:45;4.18;;;1.88;;
80295;SDS011;74188;42.148;24.762;2023-11-18T05:17:10;4.30;;;2.08;;
80295;SDS011;74188;42.148;24.762;2023-11-18T05:19:36;4.20;;;2.10;;
80295;SDS011;74188;42.148;24.762;2023-11-18T05:22:02;4.55;;;2.00;;
80295;SDS011;74188;42.148;24.762;2023-11-18T05:24:27;5.60;;;2.50;;
80295;SDS011;74188;42.148;24.762;2023-11-18T05:26:53;4.28;;;2.20;;
80295;SDS011;74188;42.148;24.762;2023-11-18T05:29:18;4.97;;;2.60;;
80295;SDS011;74188;42.148;24.762;2023-11-18T05:31:46;6.80;;;2.50;;
80295;SDS011;74188;42.148;24.762;2023-11-18T05:34:11;4.65;;;2.40;;
80295;SDS011;74188;42.148;24.762;2023-11-18T05:36:37;4.80;;;2.33;;
80295;SDS011;74188;42.148;24.762;2023-11-18T05:39:05;4.80;;;2.47;;
80295;SDS011;74188;42.148;24.762;2023-11-18T05:41:32;4.55;;;2.38;;
80295;SDS011;74188;42.148;24.762;2023-11-18T05:44:00;6.17;;;2.60;;
80295;SDS011;74188;42.148;24.762;2023-11-18T05:46:26;6.68;;;2.47;;
80295;SDS011;74188;42.148;24.762;2023-11-18T05:48:54;5.22;;;2.50;;
80295;SDS011;74188;42.148;24.762;2023-11-18T05:51:21;5.15;;;2.38;;
80295;SDS011;74188;42.148;24.762;2023-11-18T05:53:51;5.05;;;2.38;;
80295;SDS011;74188;42.148;24.762;2023-11-18T05:56:17;5.63;;;2.80;;
80295;SDS011;74188;42.148;24.762;2023-11-18T05:58:44;5.18;;;2.80;;
80295;SDS011;74188;42.148;24.762;2023-11-18T06:01:11;5.05;;;2.70;;
80295;SDS011;74188;42.148;24.762;2023-11-18T06:03:41;5.72;;;2.90;;
80295;SDS011;74188;42.148;24.762;2023-11-18T06:06:07;5.57;;;2.90;;
80295;SDS011;74188;42.148;24.762;2023-11-18T06:08:34;5.55;;;2.90;;
80295;SDS011;74188;42.148;24.762;2023-11-18T06:11:01;4.90;;;2.70;;
80295;SDS011;74188;42.148;24.762;2023-11-18T06:13:38;7.32;;;2.90;;
80295;SDS011;74188;42.148;24.762;2023-11-18T06:16:07;5.53;;;2.75;;
80295;SDS011;74188;42.148;24.762;2023-11-18T06:18:34;5.05;;;2.70;;
80295;SDS011;74188;42.148;24.762;2023-11-18T06:21:01;7.32;;;3.22;;
80295;SDS011;74188;42.148;24.762;2023-11-18T06:23:26;5.18;;;3.08;;
80295;SDS011;74188;42.148;24.762;2023-11-18T06:25:52;7.40;;;2.97;;
80295;SDS011;74188;42.148;24.762;2023-11-18T06:28:18;6.45;;;3.40;;
80295;SDS011;74188;42.148;24.762;2023-11-18T06:30:43;6.78;;;3.50;;
80295;SDS011;74188;42.148;24.762;2023-11-18T06:33:09;5.78;;;3.13;;
80295;SDS011;74188;42.148;24.762;2023-11-18T06:35:35;7.05;;;3.22;;
80295;SDS011;74188;42.148;24.762;2023-11-18T06:38:02;6.95;;;3.28;;
80295;SDS011;74188;42.148;24.762;2023-11-18T06:40:28;5.90;;;3.10;;
80295;SDS011;74188;42.148;24.762;2023-11-18T06:42:53;6.22;;;3.25;;
80295;SDS011;74188;42.148;24.762;2023-11-18T06:45:26;7.72;;;3.22;;
80295;SDS011;74188;42.148;24.762;2023-11-18T06:47:52;7.05;;;3.42;;
80295;SDS011;74188;42.148;24.762;2023-11-18T06:50:19;6.10;;;3.20;;
80295;SDS011;74188;42.148;24.762;2023-11-18T06:52:49;5.07;;;2.70;;
80295;SDS011;74188;42.148;24.762;2023-11-18T06:55:16;6.68;;;3.00;;
80295;SDS011;74188;42.148;24.762;2023-11-18T06:57:42;5.82;;;2.90;;
80295;SDS011;74188;42.148;24.762;2023-11-18T07:00:09;5.65;;;2.35;;
80295;SDS011;74188;42.148;24.762;2023-11-18T07:02:38;7.25;;;2.70;;
80295;SDS011;74188;42.148;24.762;2023-11-18T07:05:04;5.97;;;3.10;;
80295;SDS011;74188;42.148;24.762;2023-11-18T07:07:31;4.70;;;2.50;;
80295;SDS011;74188;42.148;24.762;2023-11-18T07:09:57;7.28;;;3.00;;
80295;SDS011;74188;42.148;24.762;2023-11-18T07:12:22;5.28;;;2.67;;
80295;SDS011;74188;42.148;24.762;2023-11-18T07:14:48;6.18;;;2.58;;
80295;SDS011;74188;42.148;24.762;2023-11-18T07:17:14;4.40;;;2.20;;
80295;SDS011;74188;42.148;24.762;2023-11-18T07:19:39;8.05;;;2.20;;
80295;SDS011;74188;42.148;24.762;2023-11-18T07:22:05;5.38;;;2.67;;
80295;SDS011;74188;42.148;24.762;2023-11-18T07:24:32;4.68;;;2.28;;
80295;SDS011;74188;42.148;24.762;2023-11-18T07:26:57;5.13;;;2.20;;
80295;SDS011;74188;42.148;24.762;2023-11-18T07:29:25;5.63;;;2.47;;
80295;SDS011;74188;42.148;24.762;2023-11-18T07:31:51;4.53;;;2.05;;
80295;SDS011;74188;42.148;24.762;2023-11-18T07:34:19;5.22;;;2.08;;
80295;SDS011;74188;42.148;24.762;2023-11-18T07:36:46;4.13;;;1.83;;
80295;SDS011;74188;42.148;24.762;2023-11-18T07:39:13;4.55;;;2.05;;
80295;SDS011;74188;42.148;24.762;2023-11-18T07:41:49;8.32;;;2.00;;
80295;SDS011;74188;42.148;24.762;2023-11-18T07:44:14;6.03;;;2.00;;
80295;SDS011;74188;42.148;24.762;2023-11-18T07:46:41;4.43;;;2.00;;
80295;SDS011;74188;42.148;24.762;2023-11-18T07:49:07;3.50;;;1.70;;
80295;SDS011;74188;42.148;24.762;2023-11-18T07:51:34;3.83;;;1.80;;
80295;SDS011;74188;42.148;24.762;2023-11-18T07:53:59;4.40;;;1.85;;
80295;SDS011;74188;42.148;24.762;2023-11-18T07:56:25;6.03;;;1.48;;
80295;SDS011;74188;42.148;24.762;2023-11-18T07:58:52;3.40;;;1.55;;
80295;SDS011;74188;42.148;24.762;2023-11-18T08:01:19;4.35;;;1.40;;
80295;SDS011;74188;42.148;24.762;2023-11-18T08:03:46;7.00;;;1.58;;
80295;SDS011;74188;42.148;24.762;2023-11-18T08:06:12;3.40;;;1.40;;
80295;SDS011;74188;42.148;24.762;2023-11-18T08:08:38;2.38;;;1.13;;
80295;SDS011;74188;42.148;24.762;2023-11-18T08:11:05;3.08;;;1.40;;
80295;SDS011;74188;42.148;24.762;2023-11-18T08:13:31;4.00;;;1.40;;
80295;SDS011;74188;42.148;24.762;2023-11-18T08:15:57;3.58;;;1.50;;
80295;SDS011;74188;42.148;24.762;2023-11-18T08:18:23;3.83;;;1.40;;
80295;SDS011;74188;42.148;24.762;2023-11-18T08:20:49;3.08;;;1.30;;
80295;SDS011;74188;42.148;24.762;2023-11-18T08:23:15;3.20;;;1.40;;
80295;SDS011;74188;42.148;24.762;2023-11-18T08:25:41;3.50;;;1.30;;
80295;SDS011;74188;42.148;24.762;2023-11-18T08:28:07;3.17;;;1.40;;
80295;SDS011;74188;42.148;24.762;2023-11-18T08:30:42;3.30;;;1.17;;
80295;SDS011;74188;42.148;24.762;2023-11-18T08:33:08;3.60;;;1.38;;
80295;SDS011;74188;42.148;24.762;2023-11-18T08:35:36;2.67;;;1.08;;
80295;SDS011;74188;42.148;24.762;2023-11-18T08:38:02;3.97;;;1.10;;
80295;SDS011;74188;42.148;24.762;2023-11-18T08:40:29;2.85;;;1.20;;
80295;SDS011;74188;42.148;24.762;2023-11-18T08:42:55;4.90;;;1.30;;
80295;SDS011;74188;42.148;24.762;2023-11-18T08:45:24;6.10;;;1.67;;
80295;SDS011;74188;42.148;24.762;2023-11-18T08:47:57;3.25;;;1.20;;
80295;SDS011;74188;42.148;24.762;2023-11-18T08:50:26;3.83;;;1.33;;
80295;SDS011;74188;42.148;24.762;2023-11-18T08:52:53;6.57;;;1.80;;
80295;SDS011;74188;42.148;24.762;2023-11-18T08:55:23;3.05;;;1.40;;
80295;SDS011;74188;42.148;24.762;2023-11-18T08:58:06;6.13;;;1.38;;
80295;SDS011;74188;42.148;24.762;2023-11-18T09:00:50;11.15;;;4.35;;
80295;SDS011;74188;42.148;24.762;2023-11-18T09:03:19;7.32;;;2.45;;
80295;SDS011;74188;42.148;24.762;2023-11-18T09:05:59;5.72;;;2.30;;
80295;SDS011;74188;42.148;24.762;2023-11-18T09:08:30;4.88;;;1.90;;
80295;SDS011;74188;42.148;24.762;2023-11-18T09:11:00;6.03;;;1.30;;
80295;SDS011;74188;42.148;24.762;2023-11-18T09:13:31;3.65;;;1.48;;
80295;SDS011;74188;42.148;24.762;2023-11-18T09:15:57;7.57;;;1.67;;
80295;SDS011;74188;42.148;24.762;2023-11-18T09:18:25;3.42;;;1.20;;
80295;SDS011;74188;42.148;24.762;2023-11-18T09:20:52;3.53;;;1.50;;
80295;SDS011;74188;42.148;24.762;2023-11-18T09:23:20;3.85;;;1.30;;
80295;SDS011;74188;42.148;24.762;2023-11-18T09:25:48;4.13;;;1.50;;
80295;SDS011;74188;42.148;24.762;2023-11-18T09:28:15;4.80;;;1.50;;
80295;SDS011;74188;42.148;24.762;2023-11-18T09:30:45;3.75;;;1.40;;
80295;SDS011;74188;42.148;24.762;2023-11-18T09:33:23;4.50;;;1.50;;
80295;SDS011;74188;42.148;24.762;2023-11-18T09:35:53;4.93;;;1.50;;
80295;SDS011;74188;42.148;24.762;2023-11-18T09:38:23;3.90;;;1.52;;
80295;SDS011;74188;42.148;24.762;2023-11-18T09:41:00;4.43;;;1.55;;
80295;SDS011;74188;42.148;24.762;2023-11-18T09:43:31;6.90;;;2.00;;
80295;SDS011;74188;42.148;24.762;2023-11-18T09:46:04;3.05;;;1.27;;
80295;SDS011;74188;42.148;24.762;2023-11-18T09:48:50;2.50;;;1.17;;
80295;SDS011;74188;42.148;24.762;2023-11-18T09:51:21;3.95;;;1.30;;
80295;SDS011;74188;42.148;24.762;2023-11-18T09:53:49;4.05;;;1.30;;
80295;SDS011;74188;42.148;24.762;2023-11-18T10:01:56;4.00;;;1.15;;
80295;SDS011;74188;42.148;24.762;2023-11-18T10:04:23;3.95;;;1.30;;
80295;SDS011;74188;42.148;24.762;2023-11-18T10:06:53;3.55;;;1.30;;
80295;SDS011;74188;42.148;24.762;2023-11-18T10:09:19;6.00;;;1.55;;
80295;SDS011;74188;42.148;24.762;2023-11-18T10:11:53;3.28;;;1.30;;
80295;SDS011;74188;42.148;24.762;2023-11-18T10:14:28;3.60;;;1.20;;
80295;SDS011;74188;42.148;24.762;2023-11-18T10:16:54;4.30;;;1.30;;
80295;SDS011;74188;42.148;24.762;2023-11-18T10:19:20;5.65;;;1.70;;
80295;SDS011;74188;42.148;24.762;2023-11-18T10:21:46;5.43;;;1.52;;
80295;SDS011;74188;42.148;24.762;2023-11-18T10:26:44;4.55;;;1.52;;
80295;SDS011;74188;42.148;24.762;2023-11-18T10:29:11;5.28;;;1.60;;
80295;SDS011;74188;42.148;24.762;2023-11-18T10:31:39;3.15;;;1.33;;
80295;SDS011;74188;42.148;24.762;2023-11-18T10:34:13;3.72;;;1.40;;
80295;SDS011;74188;42.148;24.762;2023-11-18T10:37:01;12.65;;;1.50;;
80295;SDS011;74188;42.148;24.762;2023-11-18T10:39:31;5.00;;;1.33;;
80295;SDS011;74188;42.148;24.762;2023-11-18T10:42:00;5.35;;;2.20;;
80295;SDS011;74188;42.148;24.762;2023-11-18T10:44:26;4.63;;;1.50;;
80295;SDS011;74188;42.148;24.762;2023-11-18T10:46:52;9.20;;;1.60;;
80295;SDS011;74188;42.148;24.762;2023-11-18T10:49:21;2.70;;;1.10;;
80295;SDS011;74188;42.148;24.762;2023-11-18T10:51:47;5.05;;;1.40;;
80295;SDS011;74188;42.148;24.762;2023-11-18T10:54:15;3.17;;;1.25;;
80295;SDS011;74188;42.148;24.762;2023-11-18T10:56:47;4.57;;;1.45;;
80295;SDS011;74188;42.148;24.762;2023-11-18T10:59:14;3.30;;;1.20;;
80295;SDS011;74188;42.148;24.762;2023-11-18T11:01:41;3.92;;;1.40;;
80295;SDS011;74188;42.148;24.762;2023-11-18T11:04:09;7.67;;;1.70;;
80295;SDS011;74188;42.148;24.762;2023-11-18T11:06:42;4.80;;;1.58;;
80295;SDS011;74188;42.148;24.762;2023-11-18T11:09:11;6.75;;;1.70;;
80295;SDS011;74188;42.148;24.762;2023-11-18T11:11:48;4.07;;;1.65;;
80295;SDS011;74188;42.148;24.762;2023-11-18T11:14:16;10.75;;;3.63;;
80295;SDS011;74188;42.148;24.762;2023-11-18T11:16:47;6.70;;;1.90;;
80295;SDS011;74188;42.148;24.762;2023-11-18T11:22:12;6.50;;;2.35;;
80295;SDS011;74188;42.148;24.762;2023-11-18T11:27:22;8.88;;;2.95;;
80295;SDS011;74188;42.148;24.762;2023-11-18T11:30:07;5.22;;;2.10;;
80295;SDS011;74188;42.148;24.762;2023-11-18T11:32:39;11.68;;;4.60;;
80295;SDS011;74188;42.148;24.762;2023-11-18T11:35:34;12.77;;;3.90;;
80295;SDS011;74188;42.148;24.762;2023-11-18T11:38:05;8.55;;;3.83;;
80295;SDS011;74188;42.148;24.762;2023-11-18T11:40:37;6.88;;;2.75;;
80295;SDS011;74188;42.148;24.762;2023-11-18T11:43:07;4.07;;;1.50;;
80295;SDS011;74188;42.148;24.762;2023-11-18T11:45:35;5.22;;;1.20;;
80295;SDS011;74188;42.148;24.762;2023-11-18T11:50:55;3.60;;;1.25;;
80295;SDS011;74188;42.148;24.762;2023-11-18T11:53:30;6.35;;;1.40;;
80295;SDS011;74188;42.148;24.762;2023-11-18T11:56:04;2.60;;;1.30;;
80295;SDS011;74188;42.148;24.762;2023-11-18T11:58:34;3.60;;;1.40;;
80295;SDS011;74188;42.148;24.762;2023-11-18T12:01:21;3.15;;;1.42;;
80295;SDS011;74188;42.148;24.762;2023-11-18T12:03:48;5.72;;;1.45;;
80295;SDS011;74188;42.148;24.762;2023-11-18T12:06:22;4.63;;;1.50;;
80295;SDS011;74188;42.148;24.762;2023-11-18T12:08:54;4.22;;;1.50;;
80295;SDS011;74188;42.148;24.762;2023-11-18T12:11:21;3.47;;;1.50;;
80295;SDS011;74188;42.148;24.762;2023-11-18T12:14:06;4.05;;;1.45;;
80295;SDS011;74188;42.148;24.762;2023-11-18T12:19:32;4.15;;;1.50;;
80295;SDS011;74188;42.148;24.762;2023-11-18T12:22:09;6.20;;;2.08;;
80295;SDS011;74188;42.148;24.762;2023-11-18T12:24:42;4.82;;;1.58;;
80295;SDS011;74188;42.148;24.762;2023-11-18T12:32:57;4.82;;;1.30;;
80295;SDS011;74188;42.148;24.762;2023-11-18T12:41:20;5.10;;;1.70;;
80295;SDS011;74188;42.148;24.762;2023-11-18T12:44:48;5.68;;;1.80;;
80295;SDS011;74188;42.148;24.762;2023-11-18T12:46:55;3.70;;;1.35;;
80295;SDS011;74188;42.148;24.762;2023-11-18T12:49:55;5.30;;;1.75;;
80295;SDS011;74188;42.148;24.762;2023-11-18T12:52:21;2.38;;;1.15;;
80295;SDS011;74188;42.148;24.762;2023-11-18T12:54:48;3.40;;;1.45;;
80295;SDS011;74188;42.148;24.762;2023-11-18T12:57:19;3.17;;;1.40;;
80295;SDS011;74188;42.148;24.762;2023-11-18T12:59:47;3.42;;;1.30;;
80295;SDS011;74188;42.148;24.762;2023-11-18T13:02:15;3.58;;;1.60;;
80295;SDS011;74188;42.148;24.762;2023-11-18T13:04:47;3.53;;;1.55;;
80295;SDS011;74188;42.148;24.762;2023-11-18T13:07:17;4.30;;;1.60;;
80295;SDS011;74188;42.148;24.762;2023-11-18T13:09:44;4.03;;;1.58;;
80295;SDS011;74188;42.148;24.762;2023-11-18T13:12:11;3.30;;;1.42;;
80295;SDS011;74188;42.148;24.762;2023-11-18T13:14:40;4.60;;;1.60;;
80295;SDS011;74188;42.148;24.762;2023-11-18T13:17:14;4.15;;;1.70;;
80295;SDS011;74188;42.148;24.762;2023-11-18T13:19:41;6.85;;;1.70;;
80295;SDS011;74188;42.148;24.762;2023-11-18T13:22:08;5.13;;;1.48;;
80295;SDS011;74188;42.148;24.762;2023-11-18T13:24:38;3.45;;;1.38;;
80295;SDS011;74188;42.148;24.762;2023-11-18T13:27:06;4.63;;;1.60;;
80295;SDS011;74188;42.148;24.762;2023-11-18T13:29:34;4.60;;;1.60;;
80295;SDS011;74188;42.148;24.762;2023-11-18T13:32:01;4.25;;;1.67;;
80295;SDS011;74188;42.148;24.762;2023-11-18T13:34:29;4.60;;;1.80;;
80295;SDS011;74188;42.148;24.762;2023-11-18T13:37:08;3.97;;;1.63;;
80295;SDS011;74188;42.148;24.762;2023-11-18T13:39:37;4.07;;;1.70;;
80295;SDS011;74188;42.148;24.762;2023-11-18T13:42:22;4.10;;;1.60;;
80295;SDS011;74188;42.148;24.762;2023-11-18T13:44:49;3.65;;;1.70;;
80295;SDS011;74188;42.148;24.762;2023-11-18T13:47:18;3.63;;;1.80;;
80295;SDS011;74188;42.148;24.762;2023-11-18T13:49:45;4.72;;;1.98;;
80295;SDS011;74188;42.148;24.762;2023-11-18T13:52:15;5.65;;;1.60;;
80295;SDS011;74188;42.148;24.762;2023-11-18T13:54:42;3.97;;;1.70;;
80295;SDS011;74188;42.148;24.762;2023-11-18T13:57:10;3.90;;;1.70;;
80295;SDS011;74188;42.148;24.762;2023-11-18T13:59:36;4.18;;;1.67;;
80295;SDS011;74188;42.148;24.762;2023-11-18T14:02:03;5.63;;;2.08;;
80295;SDS011;74188;42.148;24.762;2023-11-18T14:04:30;4.50;;;1.73;;
80295;SDS011;74188;42.148;24.762;2023-11-18T14:07:01;3.47;;;1.40;;
80295;SDS011;74188;42.148;24.762;2023-11-18T14:09:34;4.30;;;1.70;;
80295;SDS011;74188;42.148;24.762;2023-11-18T14:12:07;3.90;;;1.75;;
80295;SDS011;74188;42.148;24.762;2023-11-18T14:14:34;3.55;;;1.60;;
80295;SDS011;74188;42.148;24.762;2023-11-18T14:16:59;3.42;;;1.60;;
80295;SDS011;74188;42.148;24.762;2023-11-18T14:19:26;4.82;;;1.70;;
80295;SDS011;74188;42.148;24.762;2023-11-18T14:21:55;5.13;;;2.28;;
80295;SDS011;74188;42.148;24.762;2023-11-18T14:24:21;4.50;;;1.90;;
80295;SDS011;74188;42.148;24.762;2023-11-18T14:26:53;4.70;;;1.95;;
80295;SDS011;74188;42.148;24.762;2023-11-18T14:29:19;6.53;;;2.03;;
80295;SDS011;74188;42.148;24.762;2023-11-18T14:31:45;3.88;;;1.75;;
80295;SDS011;74188;42.148;24.762;2023-11-18T14:34:11;5.07;;;2.00;;
80295;SDS011;74188;42.148;24.762;2023-11-18T14:36:37;6.28;;;1.60;;
80295;SDS011;74188;42.148;24.762;2023-11-18T14:39:03;4.72;;;2.05;;
80295;SDS011;74188;42.148;24.762;2023-11-18T14:41:29;3.90;;;1.63;;
80295;SDS011;74188;42.148;24.762;2023-11-18T14:43:56;4.97;;;1.60;;
80295;SDS011;74188;42.148;24.762;2023-11-18T14:46:27;5.00;;;2.05;;
80295;SDS011;74188;42.148;24.762;2023-11-18T14:48:53;4.45;;;1.85;;
80295;SDS011;74188;42.148;24.762;2023-11-18T14:51:18;3.92;;;1.70;;
80295;SDS011;74188;42.148;24.762;2023-11-18T14:53:44;4.57;;;2.00;;
80295;SDS011;74188;42.148;24.762;2023-11-18T14:56:10;6.88;;;2.67;;
80295;SDS011;74188;42.148;24.762;2023-11-18T14:58:36;8.05;;;2.40;;
80295;SDS011;74188;42.148;24.762;2023-11-18T15:01:02;13.07;;;3.78;;
80295;SDS011;74188;42.148;24.762;2023-11-18T15:03:27;6.97;;;2.72;;
80295;SDS011;74188;42.148;24.762;2023-11-18T15:05:54;5.40;;;2.30;;
80295;SDS011;74188;42.148;24.762;2023-11-18T15:08:20;5.78;;;2.00;;
80295;SDS011;74188;42.148;24.762;2023-11-18T15:10:45;4.50;;;1.92;;
80295;SDS011;74188;42.148;24.762;2023-11-18T15:13:11;4.63;;;2.10;;
80295;SDS011;74188;42.148;24.762;2023-11-18T15:15:40;5.25;;;2.10;;
80295;SDS011;74188;42.148;24.762;2023-11-18T15:18:06;8.95;;;2.20;;